sensor_id;sensor_type;location;lat;lon;timestamp;P1;durP1;ratioP1;P2;durP2;ratioP2
72924;SDS011;61070;50.794;7.054;2023-11-21T00:00:20;10.77;;;3.78;;
72924;SDS011;61070;50.794;7.054;2023-11-21T00:01:20;8.00;;;3.67;;
72924;SDS011;61070;50.794;7.054;2023-11-21T00:02:21;10.65;;;4.00;;
72924;SDS011;61070;50.794;7.054;2023-11-21T00:03:21;10.85;;;4.15;;
72924;SDS011;61070;50.794;7.054;2023-11-21T00:04:23;12.18;;;4.40;;
72924;SDS011;61070;50.794;7.054;2023-11-21T00:05:24;10.48;;;4.43;;
72924;SDS011;61070;50.794;7.054;2023-11-21T00:06:24;12.13;;;4.47;;
72924;SDS011;61070;50.794;7.054;2023-11-21T00:07:24;8.35;;;3.88;;
72924;SDS011;61070;50.794;7.054;2023-11-21T00:08:25;13.75;;;4.60;;
72924;SDS011;61070;50.794;7.054;2023-11-21T00:09:25;6.35;;;4.38;;
72924;SDS011;61070;50.794;7.054;2023-11-21T00:10:25;11.52;;;4.38;;
72924;SDS011;61070;50.794;7.054;2023-11-21T00:11:26;11.45;;;4.60;;
72924;SDS011;61070;50.794;7.054;2023-11-21T00:12:26;11.88;;;4.63;;
72924;SDS011;61070;50.794;7.054;2023-11-21T00:13:29;8.15;;;4.70;;
72924;SDS011;61070;50.794;7.054;2023-11-21T00:14:29;12.65;;;5.05;;
72924;SDS011;61070;50.794;7.054;2023-11-21T00:15:29;12.35;;;5.40;;
72924;SDS011;61070;50.794;7.054;2023-11-21T00:16:29;13.55;;;5.55;;
72924;SDS011;61070;50.794;7.054;2023-11-21T00:17:30;9.85;;;5.40;;
72924;SDS011;61070;50.794;7.054;2023-11-21T00:18:30;12.65;;;5.93;;
72924;SDS011;61070;50.794;7.054;2023-11-21T00:19:31;11.32;;;5.80;;
72924;SDS011;61070;50.794;7.054;2023-11-21T00:20:32;8.65;;;5.72;;
72924;SDS011;61070;50.794;7.054;2023-11-21T00:21:32;12.27;;;5.93;;
72924;SDS011;61070;50.794;7.054;2023-11-21T00:22:33;16.70;;;6.32;;
72924;SDS011;61070;50.794;7.054;2023-11-21T00:23:34;12.20;;;6.28;;
72924;SDS011;61070;50.794;7.054;2023-11-21T00:24:45;12.95;;;5.68;;
72924;SDS011;61070;50.794;7.054;2023-11-21T00:25:46;13.40;;;6.38;;
72924;SDS011;61070;50.794;7.054;2023-11-21T00:26:46;10.27;;;5.35;;
72924;SDS011;61070;50.794;7.054;2023-11-21T00:27:48;14.82;;;7.25;;
72924;SDS011;61070;50.794;7.054;2023-11-21T00:28:49;13.25;;;6.38;;
72924;SDS011;61070;50.794;7.054;2023-11-21T00:29:49;17.88;;;7.22;;
72924;SDS011;61070;50.794;7.054;2023-11-21T00:30:49;16.42;;;6.00;;
72924;SDS011;61070;50.794;7.054;2023-11-21T00:31:49;13.57;;;6.78;;
72924;SDS011;61070;50.794;7.054;2023-11-21T00:32:50;11.90;;;7.43;;
72924;SDS011;61070;50.794;7.054;2023-11-21T00:33:50;14.25;;;6.82;;
72924;SDS011;61070;50.794;7.054;2023-11-21T00:34:50;10.63;;;6.45;;
72924;SDS011;61070;50.794;7.054;2023-11-21T00:35:51;9.82;;;6.95;;
72924;SDS011;61070;50.794;7.054;2023-11-21T00:36:51;10.65;;;6.40;;
72924;SDS011;61070;50.794;7.054;2023-11-21T00:37:51;15.02;;;7.68;;
72924;SDS011;61070;50.794;7.054;2023-11-21T00:38:52;11.88;;;7.22;;
72924;SDS011;61070;50.794;7.054;2023-11-21T00:39:52;12.98;;;7.10;;
72924;SDS011;61070;50.794;7.054;2023-11-21T00:40:53;13.13;;;7.35;;
72924;SDS011;61070;50.794;7.054;2023-11-21T00:41:56;15.55;;;8.18;;
72924;SDS011;61070;50.794;7.054;2023-11-21T00:42:56;13.90;;;7.75;;
72924;SDS011;61070;50.794;7.054;2023-11-21T00:43:56;15.73;;;7.90;;
72924;SDS011;61070;50.794;7.054;2023-11-21T00:44:57;16.65;;;7.97;;
72924;SDS011;61070;50.794;7.054;2023-11-21T00:45:57;13.57;;;7.53;;
72924;SDS011;61070;50.794;7.054;2023-11-21T00:46:57;14.90;;;7.25;;
72924;SDS011;61070;50.794;7.054;2023-11-21T00:47:57;13.52;;;7.10;;
72924;SDS011;61070;50.794;7.054;2023-11-21T00:48:58;13.75;;;7.75;;
72924;SDS011;61070;50.794;7.054;2023-11-21T00:49:58;13.15;;;6.82;;
72924;SDS011;61070;50.794;7.054;2023-11-21T00:50:59;21.02;;;9.18;;
72924;SDS011;61070;50.794;7.054;2023-11-21T00:52:00;10.77;;;6.57;;
72924;SDS011;61070;50.794;7.054;2023-11-21T00:53:00;11.40;;;7.70;;
72924;SDS011;61070;50.794;7.054;2023-11-21T00:54:02;15.05;;;7.80;;
72924;SDS011;61070;50.794;7.054;2023-11-21T00:55:02;16.25;;;7.57;;
72924;SDS011;61070;50.794;7.054;2023-11-21T00:56:04;13.10;;;6.97;;
72924;SDS011;61070;50.794;7.054;2023-11-21T00:57:05;14.95;;;7.75;;
72924;SDS011;61070;50.794;7.054;2023-11-21T00:58:05;17.25;;;6.97;;
72924;SDS011;61070;50.794;7.054;2023-11-21T00:59:06;11.82;;;6.97;;
72924;SDS011;61070;50.794;7.054;2023-11-21T01:00:07;13.27;;;6.65;;
72924;SDS011;61070;50.794;7.054;2023-11-21T01:01:13;13.48;;;6.78;;
72924;SDS011;61070;50.794;7.054;2023-11-21T01:02:13;17.40;;;6.53;;
72924;SDS011;61070;50.794;7.054;2023-11-21T01:03:14;13.68;;;7.57;;
72924;SDS011;61070;50.794;7.054;2023-11-21T01:04:15;12.18;;;6.75;;
72924;SDS011;61070;50.794;7.054;2023-11-21T01:05:15;13.80;;;7.32;;
72924;SDS011;61070;50.794;7.054;2023-11-21T01:06:15;12.38;;;6.47;;
72924;SDS011;61070;50.794;7.054;2023-11-21T01:07:16;13.18;;;7.15;;
72924;SDS011;61070;50.794;7.054;2023-11-21T01:08:16;12.52;;;6.85;;
72924;SDS011;61070;50.794;7.054;2023-11-21T01:09:16;15.23;;;6.80;;
72924;SDS011;61070;50.794;7.054;2023-11-21T01:10:18;9.50;;;6.85;;
72924;SDS011;61070;50.794;7.054;2023-11-21T01:11:18;14.00;;;7.22;;
72924;SDS011;61070;50.794;7.054;2023-11-21T01:12:19;16.70;;;7.25;;
72924;SDS011;61070;50.794;7.054;2023-11-21T01:13:20;15.38;;;7.22;;
72924;SDS011;61070;50.794;7.054;2023-11-21T01:14:21;11.70;;;7.20;;
72924;SDS011;61070;50.794;7.054;2023-11-21T01:15:21;18.35;;;8.27;;
72924;SDS011;61070;50.794;7.054;2023-11-21T01:16:21;16.13;;;6.88;;
72924;SDS011;61070;50.794;7.054;2023-11-21T01:17:22;12.43;;;6.97;;
72924;SDS011;61070;50.794;7.054;2023-11-21T01:18:22;12.98;;;6.85;;
72924;SDS011;61070;50.794;7.054;2023-11-21T01:19:25;16.58;;;6.93;;
72924;SDS011;61070;50.794;7.054;2023-11-21T01:20:25;10.60;;;6.05;;
72924;SDS011;61070;50.794;7.054;2023-11-21T01:21:26;17.83;;;6.63;;
72924;SDS011;61070;50.794;7.054;2023-11-21T01:22:28;13.23;;;7.35;;
72924;SDS011;61070;50.794;7.054;2023-11-21T01:23:28;11.00;;;6.38;;
72924;SDS011;61070;50.794;7.054;2023-11-21T01:24:28;17.10;;;6.07;;
72924;SDS011;61070;50.794;7.054;2023-11-21T01:25:29;13.02;;;6.13;;
72924;SDS011;61070;50.794;7.054;2023-11-21T01:26:29;13.70;;;6.57;;
72924;SDS011;61070;50.794;7.054;2023-11-21T01:27:29;13.15;;;6.45;;
72924;SDS011;61070;50.794;7.054;2023-11-21T01:28:30;11.73;;;5.90;;
72924;SDS011;61070;50.794;7.054;2023-11-21T01:29:30;15.63;;;6.65;;
72924;SDS011;61070;50.794;7.054;2023-11-21T01:30:30;14.00;;;6.40;;
72924;SDS011;61070;50.794;7.054;2023-11-21T01:31:32;11.57;;;6.30;;
72924;SDS011;61070;50.794;7.054;2023-11-21T01:32:32;9.10;;;5.57;;
72924;SDS011;61070;50.794;7.054;2023-11-21T01:33:33;13.15;;;5.63;;
72924;SDS011;61070;50.794;7.054;2023-11-21T01:34:34;12.32;;;6.75;;
72924;SDS011;61070;50.794;7.054;2023-11-21T01:35:34;18.95;;;7.28;;
72924;SDS011;61070;50.794;7.054;2023-11-21T01:36:35;12.05;;;6.13;;
72924;SDS011;61070;50.794;7.054;2023-11-21T01:37:36;13.30;;;6.63;;
72924;SDS011;61070;50.794;7.054;2023-11-21T01:38:37;13.48;;;6.70;;
72924;SDS011;61070;50.794;7.054;2023-11-21T01:39:38;12.05;;;5.60;;
72924;SDS011;61070;50.794;7.054;2023-11-21T01:40:39;11.38;;;6.13;;
72924;SDS011;61070;50.794;7.054;2023-11-21T01:41:39;14.45;;;6.38;;
72924;SDS011;61070;50.794;7.054;2023-11-21T01:42:39;12.50;;;6.10;;
72924;SDS011;61070;50.794;7.054;2023-11-21T01:43:41;17.92;;;6.25;;
72924;SDS011;61070;50.794;7.054;2023-11-21T01:44:41;14.10;;;6.65;;
72924;SDS011;61070;50.794;7.054;2023-11-21T01:45:42;14.82;;;6.95;;
72924;SDS011;61070;50.794;7.054;2023-11-21T01:46:42;18.08;;;7.13;;
72924;SDS011;61070;50.794;7.054;2023-11-21T01:47:42;13.00;;;6.80;;
72924;SDS011;61070;50.794;7.054;2023-11-21T01:48:44;15.55;;;6.47;;
72924;SDS011;61070;50.794;7.054;2023-11-21T01:49:45;19.10;;;6.70;;
72924;SDS011;61070;50.794;7.054;2023-11-21T01:50:46;15.07;;;7.28;;
72924;SDS011;61070;50.794;7.054;2023-11-21T01:51:47;14.57;;;6.57;;
72924;SDS011;61070;50.794;7.054;2023-11-21T01:52:49;18.45;;;7.00;;
72924;SDS011;61070;50.794;7.054;2023-11-21T01:53:50;12.75;;;6.68;;
72924;SDS011;61070;50.794;7.054;2023-11-21T01:54:50;15.45;;;6.75;;
72924;SDS011;61070;50.794;7.054;2023-11-21T01:55:51;12.20;;;6.80;;
72924;SDS011;61070;50.794;7.054;2023-11-21T01:56:53;14.45;;;7.47;;
72924;SDS011;61070;50.794;7.054;2023-11-21T01:57:54;14.23;;;6.20;;
72924;SDS011;61070;50.794;7.054;2023-11-21T01:58:56;12.85;;;7.22;;
72924;SDS011;61070;50.794;7.054;2023-11-21T01:59:56;12.52;;;7.32;;
72924;SDS011;61070;50.794;7.054;2023-11-21T02:00:59;15.02;;;7.40;;
72924;SDS011;61070;50.794;7.054;2023-11-21T02:01:59;11.23;;;6.43;;
72924;SDS011;61070;50.794;7.054;2023-11-21T02:02:59;12.35;;;6.85;;
72924;SDS011;61070;50.794;7.054;2023-11-21T02:04:00;15.27;;;6.72;;
72924;SDS011;61070;50.794;7.054;2023-11-21T02:05:01;13.43;;;6.53;;
72924;SDS011;61070;50.794;7.054;2023-11-21T02:06:02;17.02;;;8.00;;
72924;SDS011;61070;50.794;7.054;2023-11-21T02:07:02;12.95;;;7.53;;
72924;SDS011;61070;50.794;7.054;2023-11-21T02:08:06;18.83;;;7.30;;
72924;SDS011;61070;50.794;7.054;2023-11-21T02:09:09;15.73;;;7.72;;
72924;SDS011;61070;50.794;7.054;2023-11-21T02:10:09;11.70;;;7.25;;
72924;SDS011;61070;50.794;7.054;2023-11-21T02:11:14;20.30;;;7.60;;
72924;SDS011;61070;50.794;7.054;2023-11-21T02:12:15;15.27;;;6.90;;
72924;SDS011;61070;50.794;7.054;2023-11-21T02:13:16;19.15;;;8.07;;
72924;SDS011;61070;50.794;7.054;2023-11-21T02:14:16;15.82;;;7.15;;
72924;SDS011;61070;50.794;7.054;2023-11-21T02:15:20;18.35;;;7.82;;
72924;SDS011;61070;50.794;7.054;2023-11-21T02:16:20;20.15;;;7.88;;
72924;SDS011;61070;50.794;7.054;2023-11-21T02:17:21;15.00;;;7.65;;
72924;SDS011;61070;50.794;7.054;2023-11-21T02:18:21;12.85;;;7.10;;
72924;SDS011;61070;50.794;7.054;2023-11-21T02:19:22;14.25;;;7.72;;
72924;SDS011;61070;50.794;7.054;2023-11-21T02:20:25;17.08;;;7.70;;
72924;SDS011;61070;50.794;7.054;2023-11-21T02:21:26;15.85;;;8.30;;
72924;SDS011;61070;50.794;7.054;2023-11-21T02:22:29;16.60;;;8.02;;
72924;SDS011;61070;50.794;7.054;2023-11-21T02:23:31;14.23;;;7.90;;
72924;SDS011;61070;50.794;7.054;2023-11-21T02:24:31;19.30;;;8.43;;
72924;SDS011;61070;50.794;7.054;2023-11-21T02:25:32;13.93;;;7.88;;
72924;SDS011;61070;50.794;7.054;2023-11-21T02:26:33;17.98;;;8.43;;
72924;SDS011;61070;50.794;7.054;2023-11-21T02:27:34;19.45;;;8.45;;
72924;SDS011;61070;50.794;7.054;2023-11-21T02:28:34;22.45;;;8.73;;
72924;SDS011;61070;50.794;7.054;2023-11-21T02:29:34;16.00;;;8.02;;
72924;SDS011;61070;50.794;7.054;2023-11-21T02:30:34;16.25;;;8.68;;
72924;SDS011;61070;50.794;7.054;2023-11-21T02:31:35;16.52;;;8.85;;
72924;SDS011;61070;50.794;7.054;2023-11-21T02:32:37;14.38;;;9.05;;
72924;SDS011;61070;50.794;7.054;2023-11-21T02:33:39;18.60;;;8.90;;
72924;SDS011;61070;50.794;7.054;2023-11-21T02:34:40;18.35;;;9.52;;
72924;SDS011;61070;50.794;7.054;2023-11-21T02:35:40;15.63;;;8.40;;
72924;SDS011;61070;50.794;7.054;2023-11-21T02:36:41;22.35;;;10.23;;
72924;SDS011;61070;50.794;7.054;2023-11-21T02:37:42;16.90;;;9.80;;
72924;SDS011;61070;50.794;7.054;2023-11-21T02:38:42;19.38;;;9.90;;
72924;SDS011;61070;50.794;7.054;2023-11-21T02:39:43;17.88;;;10.63;;
72924;SDS011;61070;50.794;7.054;2023-11-21T02:40:43;16.15;;;10.05;;
72924;SDS011;61070;50.794;7.054;2023-11-21T02:41:43;17.30;;;10.40;;
72924;SDS011;61070;50.794;7.054;2023-11-21T02:42:44;27.77;;;11.30;;
72924;SDS011;61070;50.794;7.054;2023-11-21T02:43:45;17.17;;;10.88;;
72924;SDS011;61070;50.794;7.054;2023-11-21T02:44:45;23.42;;;10.75;;
72924;SDS011;61070;50.794;7.054;2023-11-21T02:45:45;20.08;;;10.85;;
72924;SDS011;61070;50.794;7.054;2023-11-21T02:46:45;21.48;;;10.80;;
72924;SDS011;61070;50.794;7.054;2023-11-21T02:47:47;23.98;;;11.63;;
72924;SDS011;61070;50.794;7.054;2023-11-21T02:48:47;20.10;;;11.20;;
72924;SDS011;61070;50.794;7.054;2023-11-21T02:49:47;21.65;;;11.50;;
72924;SDS011;61070;50.794;7.054;2023-11-21T02:50:48;22.85;;;10.50;;
72924;SDS011;61070;50.794;7.054;2023-11-21T02:51:48;26.77;;;10.98;;
72924;SDS011;61070;50.794;7.054;2023-11-21T02:52:48;19.70;;;11.50;;
72924;SDS011;61070;50.794;7.054;2023-11-21T02:53:49;21.50;;;12.30;;
72924;SDS011;61070;50.794;7.054;2023-11-21T02:54:51;25.33;;;11.80;;
72924;SDS011;61070;50.794;7.054;2023-11-21T02:55:51;22.73;;;11.38;;
72924;SDS011;61070;50.794;7.054;2023-11-21T02:56:52;18.73;;;11.98;;
72924;SDS011;61070;50.794;7.054;2023-11-21T02:57:52;23.02;;;11.05;;
72924;SDS011;61070;50.794;7.054;2023-11-21T02:58:54;19.15;;;11.05;;
72924;SDS011;61070;50.794;7.054;2023-11-21T02:59:55;19.50;;;11.32;;
72924;SDS011;61070;50.794;7.054;2023-11-21T03:00:56;28.63;;;12.25;;
72924;SDS011;61070;50.794;7.054;2023-11-21T03:01:56;23.45;;;12.25;;
72924;SDS011;61070;50.794;7.054;2023-11-21T03:02:57;22.73;;;12.65;;
72924;SDS011;61070;50.794;7.054;2023-11-21T03:03:57;33.20;;;12.65;;
72924;SDS011;61070;50.794;7.054;2023-11-21T03:04:57;26.85;;;12.10;;
72924;SDS011;61070;50.794;7.054;2023-11-21T03:05:57;28.35;;;12.93;;
72924;SDS011;61070;50.794;7.054;2023-11-21T03:06:58;22.02;;;12.05;;
72924;SDS011;61070;50.794;7.054;2023-11-21T03:07:58;23.55;;;12.05;;
72924;SDS011;61070;50.794;7.054;2023-11-21T03:08:58;26.88;;;12.88;;
72924;SDS011;61070;50.794;7.054;2023-11-21T03:09:59;25.48;;;12.00;;
72924;SDS011;61070;50.794;7.054;2023-11-21T03:10:59;26.25;;;12.93;;
72924;SDS011;61070;50.794;7.054;2023-11-21T03:11:59;29.17;;;13.30;;
72924;SDS011;61070;50.794;7.054;2023-11-21T03:12:59;30.25;;;13.40;;
72924;SDS011;61070;50.794;7.054;2023-11-21T03:14:00;36.38;;;14.60;;
72924;SDS011;61070;50.794;7.054;2023-11-21T03:15:00;36.72;;;13.13;;
72924;SDS011;61070;50.794;7.054;2023-11-21T03:16:01;29.23;;;13.18;;
72924;SDS011;61070;50.794;7.054;2023-11-21T03:17:02;27.50;;;13.93;;
72924;SDS011;61070;50.794;7.054;2023-11-21T03:18:04;29.92;;;13.35;;
72924;SDS011;61070;50.794;7.054;2023-11-21T03:19:05;26.58;;;13.63;;
72924;SDS011;61070;50.794;7.054;2023-11-21T03:20:05;26.75;;;13.13;;
72924;SDS011;61070;50.794;7.054;2023-11-21T03:21:06;27.27;;;12.80;;
72924;SDS011;61070;50.794;7.054;2023-11-21T03:22:10;29.23;;;13.10;;
72924;SDS011;61070;50.794;7.054;2023-11-21T03:23:11;27.92;;;12.98;;
72924;SDS011;61070;50.794;7.054;2023-11-21T03:24:12;33.97;;;14.93;;
72924;SDS011;61070;50.794;7.054;2023-11-21T03:25:12;37.65;;;14.32;;
72924;SDS011;61070;50.794;7.054;2023-11-21T03:26:13;33.72;;;13.90;;
72924;SDS011;61070;50.794;7.054;2023-11-21T03:27:13;36.10;;;14.45;;
72924;SDS011;61070;50.794;7.054;2023-11-21T03:28:14;30.80;;;15.20;;
72924;SDS011;61070;50.794;7.054;2023-11-21T03:29:14;32.15;;;14.68;;
72924;SDS011;61070;50.794;7.054;2023-11-21T03:30:14;38.25;;;16.02;;
72924;SDS011;61070;50.794;7.054;2023-11-21T03:31:15;34.22;;;14.85;;
72924;SDS011;61070;50.794;7.054;2023-11-21T03:32:17;32.22;;;14.73;;
72924;SDS011;61070;50.794;7.054;2023-11-21T03:33:18;36.22;;;15.73;;
72924;SDS011;61070;50.794;7.054;2023-11-21T03:34:25;32.67;;;15.68;;
72924;SDS011;61070;50.794;7.054;2023-11-21T03:35:26;39.15;;;17.10;;
72924;SDS011;61070;50.794;7.054;2023-11-21T03:36:27;37.58;;;15.45;;
72924;SDS011;61070;50.794;7.054;2023-11-21T03:37:28;35.33;;;16.70;;
72924;SDS011;61070;50.794;7.054;2023-11-21T03:38:28;31.40;;;16.50;;
72924;SDS011;61070;50.794;7.054;2023-11-21T03:39:28;32.97;;;16.15;;
72924;SDS011;61070;50.794;7.054;2023-11-21T03:40:29;39.88;;;16.95;;
72924;SDS011;61070;50.794;7.054;2023-11-21T03:41:31;40.10;;;17.52;;
72924;SDS011;61070;50.794;7.054;2023-11-21T03:42:31;32.05;;;16.70;;
72924;SDS011;61070;50.794;7.054;2023-11-21T03:43:31;37.30;;;16.23;;
72924;SDS011;61070;50.794;7.054;2023-11-21T03:44:32;33.88;;;15.65;;
72924;SDS011;61070;50.794;7.054;2023-11-21T03:45:32;41.97;;;16.95;;
72924;SDS011;61070;50.794;7.054;2023-11-21T03:46:32;34.50;;;16.77;;
72924;SDS011;61070;50.794;7.054;2023-11-21T03:47:33;34.30;;;16.48;;
72924;SDS011;61070;50.794;7.054;2023-11-21T03:48:33;38.60;;;17.70;;
72924;SDS011;61070;50.794;7.054;2023-11-21T03:49:33;41.28;;;17.10;;
72924;SDS011;61070;50.794;7.054;2023-11-21T03:50:34;32.17;;;16.58;;
72924;SDS011;61070;50.794;7.054;2023-11-21T03:51:34;43.17;;;17.25;;
72924;SDS011;61070;50.794;7.054;2023-11-21T03:52:35;34.05;;;16.27;;
72924;SDS011;61070;50.794;7.054;2023-11-21T03:53:35;36.97;;;18.05;;
72924;SDS011;61070;50.794;7.054;2023-11-21T03:54:35;36.22;;;18.08;;
72924;SDS011;61070;50.794;7.054;2023-11-21T03:55:36;35.88;;;17.33;;
72924;SDS011;61070;50.794;7.054;2023-11-21T03:56:36;37.35;;;19.40;;
72924;SDS011;61070;50.794;7.054;2023-11-21T03:57:36;36.78;;;18.48;;
72924;SDS011;61070;50.794;7.054;2023-11-21T03:58:37;39.65;;;18.70;;
72924;SDS011;61070;50.794;7.054;2023-11-21T03:59:39;33.95;;;18.25;;
72924;SDS011;61070;50.794;7.054;2023-11-21T04:00:41;32.08;;;19.90;;
72924;SDS011;61070;50.794;7.054;2023-11-21T04:01:41;32.00;;;18.10;;
72924;SDS011;61070;50.794;7.054;2023-11-21T04:02:41;37.63;;;19.73;;
72924;SDS011;61070;50.794;7.054;2023-11-21T04:03:42;37.50;;;19.80;;
72924;SDS011;61070;50.794;7.054;2023-11-21T04:04:42;36.47;;;19.67;;
72924;SDS011;61070;50.794;7.054;2023-11-21T04:05:42;39.17;;;19.65;;
72924;SDS011;61070;50.794;7.054;2023-11-21T04:06:43;44.85;;;20.17;;
72924;SDS011;61070;50.794;7.054;2023-11-21T04:07:43;36.20;;;19.35;;
72924;SDS011;61070;50.794;7.054;2023-11-21T04:08:44;34.75;;;18.27;;
72924;SDS011;61070;50.794;7.054;2023-11-21T04:09:45;31.95;;;18.65;;
72924;SDS011;61070;50.794;7.054;2023-11-21T04:10:45;37.50;;;19.85;;
72924;SDS011;61070;50.794;7.054;2023-11-21T04:11:45;39.47;;;19.95;;
72924;SDS011;61070;50.794;7.054;2023-11-21T04:12:46;32.10;;;18.30;;
72924;SDS011;61070;50.794;7.054;2023-11-21T04:13:46;31.00;;;17.52;;
72924;SDS011;61070;50.794;7.054;2023-11-21T04:14:47;35.80;;;18.42;;
72924;SDS011;61070;50.794;7.054;2023-11-21T04:15:47;32.47;;;18.65;;
72924;SDS011;61070;50.794;7.054;2023-11-21T04:16:47;29.75;;;17.77;;
72924;SDS011;61070;50.794;7.054;2023-11-21T04:17:48;28.65;;;16.58;;
72924;SDS011;61070;50.794;7.054;2023-11-21T04:18:48;35.00;;;16.85;;
72924;SDS011;61070;50.794;7.054;2023-11-21T04:19:49;33.20;;;16.80;;
72924;SDS011;61070;50.794;7.054;2023-11-21T04:20:49;38.72;;;16.88;;
72924;SDS011;61070;50.794;7.054;2023-11-21T04:21:50;26.40;;;15.85;;
72924;SDS011;61070;50.794;7.054;2023-11-21T04:22:50;34.10;;;16.98;;
72924;SDS011;61070;50.794;7.054;2023-11-21T04:23:50;31.25;;;16.45;;
72924;SDS011;61070;50.794;7.054;2023-11-21T04:24:51;36.85;;;15.80;;
72924;SDS011;61070;50.794;7.054;2023-11-21T04:25:51;36.95;;;16.35;;
72924;SDS011;61070;50.794;7.054;2023-11-21T04:26:54;31.55;;;16.25;;
72924;SDS011;61070;50.794;7.054;2023-11-21T04:27:54;30.33;;;16.88;;
72924;SDS011;61070;50.794;7.054;2023-11-21T04:28:54;35.45;;;16.05;;
72924;SDS011;61070;50.794;7.054;2023-11-21T04:29:55;36.53;;;17.60;;
72924;SDS011;61070;50.794;7.054;2023-11-21T04:30:55;33.78;;;16.27;;
72924;SDS011;61070;50.794;7.054;2023-11-21T04:31:55;35.50;;;16.60;;
72924;SDS011;61070;50.794;7.054;2023-11-21T04:32:55;29.55;;;16.63;;
72924;SDS011;61070;50.794;7.054;2023-11-21T04:33:57;36.58;;;16.83;;
72924;SDS011;61070;50.794;7.054;2023-11-21T04:34:57;34.92;;;17.95;;
72924;SDS011;61070;50.794;7.054;2023-11-21T04:35:57;37.05;;;17.23;;
72924;SDS011;61070;50.794;7.054;2023-11-21T04:36:58;26.30;;;15.43;;
72924;SDS011;61070;50.794;7.054;2023-11-21T04:37:58;33.85;;;15.23;;
72924;SDS011;61070;50.794;7.054;2023-11-21T04:38:58;39.35;;;16.85;;
72924;SDS011;61070;50.794;7.054;2023-11-21T04:39:59;40.58;;;16.23;;
72924;SDS011;61070;50.794;7.054;2023-11-21T04:40:59;32.83;;;17.67;;
72924;SDS011;61070;50.794;7.054;2023-11-21T04:41:59;30.08;;;16.23;;
72924;SDS011;61070;50.794;7.054;2023-11-21T04:43:00;32.55;;;16.45;;
72924;SDS011;61070;50.794;7.054;2023-11-21T04:44:00;31.63;;;15.43;;
72924;SDS011;61070;50.794;7.054;2023-11-21T04:45:00;32.40;;;16.65;;
72924;SDS011;61070;50.794;7.054;2023-11-21T04:46:01;34.83;;;16.50;;
72924;SDS011;61070;50.794;7.054;2023-11-21T04:47:02;32.75;;;15.73;;
72924;SDS011;61070;50.794;7.054;2023-11-21T04:48:04;31.95;;;16.02;;
72924;SDS011;61070;50.794;7.054;2023-11-21T04:49:06;31.25;;;15.43;;
72924;SDS011;61070;50.794;7.054;2023-11-21T04:50:07;30.58;;;14.88;;
72924;SDS011;61070;50.794;7.054;2023-11-21T04:51:07;30.23;;;14.60;;
72924;SDS011;61070;50.794;7.054;2023-11-21T04:52:07;32.53;;;15.90;;
72924;SDS011;61070;50.794;7.054;2023-11-21T04:53:09;33.78;;;16.00;;
72924;SDS011;61070;50.794;7.054;2023-11-21T04:54:09;31.83;;;15.82;;
72924;SDS011;61070;50.794;7.054;2023-11-21T04:55:10;36.65;;;15.48;;
72924;SDS011;61070;50.794;7.054;2023-11-21T04:56:10;41.25;;;16.92;;
72924;SDS011;61070;50.794;7.054;2023-11-21T04:57:11;35.65;;;16.13;;
72924;SDS011;61070;50.794;7.054;2023-11-21T04:58:12;31.70;;;14.88;;
72924;SDS011;61070;50.794;7.054;2023-11-21T04:59:12;33.33;;;15.55;;
72924;SDS011;61070;50.794;7.054;2023-11-21T05:00:12;30.13;;;16.27;;
72924;SDS011;61070;50.794;7.054;2023-11-21T05:01:13;29.15;;;14.85;;
72924;SDS011;61070;50.794;7.054;2023-11-21T05:02:13;32.53;;;14.88;;
72924;SDS011;61070;50.794;7.054;2023-11-21T05:03:13;35.42;;;15.93;;
72924;SDS011;61070;50.794;7.054;2023-11-21T05:04:14;34.45;;;14.98;;
72924;SDS011;61070;50.794;7.054;2023-11-21T05:05:14;32.83;;;16.60;;
72924;SDS011;61070;50.794;7.054;2023-11-21T05:06:15;34.42;;;15.90;;
72924;SDS011;61070;50.794;7.054;2023-11-21T05:07:15;36.95;;;16.10;;
72924;SDS011;61070;50.794;7.054;2023-11-21T05:08:16;34.05;;;16.35;;
72924;SDS011;61070;50.794;7.054;2023-11-21T05:09:17;30.52;;;14.75;;
72924;SDS011;61070;50.794;7.054;2023-11-21T05:10:17;28.67;;;13.68;;
72924;SDS011;61070;50.794;7.054;2023-11-21T05:11:24;32.10;;;15.38;;
72924;SDS011;61070;50.794;7.054;2023-11-21T05:12:30;34.40;;;15.35;;
72924;SDS011;61070;50.794;7.054;2023-11-21T05:13:35;30.10;;;15.30;;
72924;SDS011;61070;50.794;7.054;2023-11-21T05:14:36;31.13;;;15.20;;
72924;SDS011;61070;50.794;7.054;2023-11-21T05:15:36;27.23;;;13.73;;
72924;SDS011;61070;50.794;7.054;2023-11-21T05:16:37;23.92;;;13.70;;
72924;SDS011;61070;50.794;7.054;2023-11-21T05:17:38;31.52;;;13.70;;
72924;SDS011;61070;50.794;7.054;2023-11-21T05:18:49;29.35;;;13.93;;
72924;SDS011;61070;50.794;7.054;2023-11-21T05:19:50;29.92;;;14.77;;
72924;SDS011;61070;50.794;7.054;2023-11-21T05:20:50;27.60;;;14.20;;
72924;SDS011;61070;50.794;7.054;2023-11-21T05:21:51;27.17;;;13.93;;
72924;SDS011;61070;50.794;7.054;2023-11-21T05:22:51;21.23;;;12.63;;
72924;SDS011;61070;50.794;7.054;2023-11-21T05:23:52;28.73;;;14.98;;
72924;SDS011;61070;50.794;7.054;2023-11-21T05:24:52;28.83;;;14.23;;
72924;SDS011;61070;50.794;7.054;2023-11-21T05:25:52;26.50;;;13.77;;
72924;SDS011;61070;50.794;7.054;2023-11-21T05:26:53;30.55;;;14.07;;
72924;SDS011;61070;50.794;7.054;2023-11-21T05:27:53;28.77;;;14.05;;
72924;SDS011;61070;50.794;7.054;2023-11-21T05:28:54;24.25;;;13.27;;
72924;SDS011;61070;50.794;7.054;2023-11-21T05:29:54;27.55;;;13.82;;
72924;SDS011;61070;50.794;7.054;2023-11-21T05:30:55;26.15;;;13.63;;
72924;SDS011;61070;50.794;7.054;2023-11-21T05:31:55;31.38;;;15.23;;
72924;SDS011;61070;50.794;7.054;2023-11-21T05:32:56;34.58;;;15.75;;
72924;SDS011;61070;50.794;7.054;2023-11-21T05:33:56;31.35;;;16.00;;
72924;SDS011;61070;50.794;7.054;2023-11-21T05:34:56;31.52;;;15.20;;
72924;SDS011;61070;50.794;7.054;2023-11-21T05:35:56;32.25;;;16.05;;
72924;SDS011;61070;50.794;7.054;2023-11-21T05:36:57;29.48;;;15.75;;
72924;SDS011;61070;50.794;7.054;2023-11-21T05:37:58;39.75;;;16.75;;
72924;SDS011;61070;50.794;7.054;2023-11-21T05:38:58;32.80;;;17.52;;
72924;SDS011;61070;50.794;7.054;2023-11-21T05:39:58;33.10;;;17.45;;
72924;SDS011;61070;50.794;7.054;2023-11-21T05:41:04;41.13;;;18.33;;
72924;SDS011;61070;50.794;7.054;2023-11-21T05:42:05;41.22;;;19.88;;
72924;SDS011;61070;50.794;7.054;2023-11-21T05:43:06;37.75;;;18.88;;
72924;SDS011;61070;50.794;7.054;2023-11-21T05:44:06;44.08;;;17.77;;
72924;SDS011;61070;50.794;7.054;2023-11-21T05:45:07;37.15;;;17.90;;
72924;SDS011;61070;50.794;7.054;2023-11-21T05:46:10;33.85;;;18.38;;
72924;SDS011;61070;50.794;7.054;2023-11-21T05:47:11;34.42;;;17.75;;
72924;SDS011;61070;50.794;7.054;2023-11-21T05:48:13;39.17;;;19.60;;
72924;SDS011;61070;50.794;7.054;2023-11-21T05:49:13;39.67;;;19.98;;
72924;SDS011;61070;50.794;7.054;2023-11-21T05:50:14;40.47;;;19.98;;
72924;SDS011;61070;50.794;7.054;2023-11-21T05:51:15;37.60;;;19.15;;
72924;SDS011;61070;50.794;7.054;2023-11-21T05:52:16;36.80;;;19.77;;
72924;SDS011;61070;50.794;7.054;2023-11-21T05:53:16;44.63;;;21.45;;
72924;SDS011;61070;50.794;7.054;2023-11-21T05:54:17;38.08;;;21.08;;
72924;SDS011;61070;50.794;7.054;2023-11-21T05:55:17;42.40;;;20.77;;
72924;SDS011;61070;50.794;7.054;2023-11-21T05:56:17;38.50;;;20.48;;
72924;SDS011;61070;50.794;7.054;2023-11-21T05:57:18;44.92;;;21.98;;
72924;SDS011;61070;50.794;7.054;2023-11-21T05:58:18;52.45;;;21.42;;